Terminal Aerodrome Forecast
Issued by NWS

Home | Current Version | Previous Version | Text Only | Print | Product List | Glossary On
Versions: 1 2 3 4 5 6 7 8 9 10 11 12 13 14 15 16 17 18 19 20 21 22 23 24 25 26 27 28 29 30 31 32 33 34 35 36 37 38 39 40
000
FTUS41 KBOX 281742
TAFHYA
TAF
KHYA 281742Z 2818/2918 35014G22KT 1SM -SN BR OVC003
     FM290000 36009KT 1SM -SN BR OVC008
     FM290300 36005KT 4SM -SN BR OVC008
     FM290700 01007KT P6SM OVC008
     FM291200 01009KT P6SM OVC025
     FM291500 01010KT P6SM BKN015=

USA.gov is the U.S. government's official web portal to all federal, state and local government web resources and services.